sensor_id;sensor_type;location;lat;lon;timestamp;P1;durP1;ratioP1;P2;durP2;ratioP2
68608;SDS011;55581;46.718;7.690;2022-07-29T00:00:20;4.87;;;2.00;;
68608;SDS011;55581;46.718;7.690;2022-07-29T00:02:48;6.13;;;2.10;;
68608;SDS011;55581;46.718;7.690;2022-07-29T00:05:13;5.17;;;2.20;;
68608;SDS011;55581;46.718;7.690;2022-07-29T00:07:41;5.07;;;2.25;;
68608;SDS011;55581;46.718;7.690;2022-07-29T00:10:07;4.57;;;2.07;;
68608;SDS011;55581;46.718;7.690;2022-07-29T00:12:33;4.55;;;2.00;;
68608;SDS011;55581;46.718;7.690;2022-07-29T00:15:00;6.00;;;2.50;;
68608;SDS011;55581;46.718;7.690;2022-07-29T00:20:16;4.75;;;2.53;;
68608;SDS011;55581;46.718;7.690;2022-07-29T00:22:41;6.13;;;2.17;;
68608;SDS011;55581;46.718;7.690;2022-07-29T00:25:07;5.32;;;2.20;;
68608;SDS011;55581;46.718;7.690;2022-07-29T00:27:35;4.70;;;2.60;;
68608;SDS011;55581;46.718;7.690;2022-07-29T00:30:02;5.18;;;2.22;;
68608;SDS011;55581;46.718;7.690;2022-07-29T00:32:28;4.85;;;2.03;;
68608;SDS011;55581;46.718;7.690;2022-07-29T00:34:53;7.10;;;2.10;;
68608;SDS011;55581;46.718;7.690;2022-07-29T00:37:37;6.65;;;2.70;;
68608;SDS011;55581;46.718;7.690;2022-07-29T00:40:03;8.77;;;2.60;;
68608;SDS011;55581;46.718;7.690;2022-07-29T00:42:29;6.40;;;2.42;;
68608;SDS011;55581;46.718;7.690;2022-07-29T00:44:54;5.47;;;2.30;;
68608;SDS011;55581;46.718;7.690;2022-07-29T00:47:20;4.27;;;2.20;;
68608;SDS011;55581;46.718;7.690;2022-07-29T00:49:45;7.03;;;2.53;;
68608;SDS011;55581;46.718;7.690;2022-07-29T00:52:13;8.38;;;2.70;;
68608;SDS011;55581;46.718;7.690;2022-07-29T00:54:39;4.32;;;2.17;;
68608;SDS011;55581;46.718;7.690;2022-07-29T00:57:05;4.50;;;2.23;;
68608;SDS011;55581;46.718;7.690;2022-07-29T00:59:32;5.60;;;2.40;;
68608;SDS011;55581;46.718;7.690;2022-07-29T01:01:57;6.40;;;1.80;;
68608;SDS011;55581;46.718;7.690;2022-07-29T01:04:22;4.82;;;2.30;;
68608;SDS011;55581;46.718;7.690;2022-07-29T01:06:50;6.97;;;2.43;;
68608;SDS011;55581;46.718;7.690;2022-07-29T01:09:17;4.78;;;2.25;;
68608;SDS011;55581;46.718;7.690;2022-07-29T01:11:43;5.22;;;2.30;;
68608;SDS011;55581;46.718;7.690;2022-07-29T01:14:12;4.60;;;2.20;;
68608;SDS011;55581;46.718;7.690;2022-07-29T01:16:42;4.40;;;2.28;;
68608;SDS011;55581;46.718;7.690;2022-07-29T01:21:56;4.82;;;2.13;;
68608;SDS011;55581;46.718;7.690;2022-07-29T01:29:55;7.55;;;2.58;;
68608;SDS011;55581;46.718;7.690;2022-07-29T01:32:24;4.97;;;1.90;;
68608;SDS011;55581;46.718;7.690;2022-07-29T01:39:52;10.55;;;2.60;;
68608;SDS011;55581;46.718;7.690;2022-07-29T01:42:43;4.65;;;2.40;;
68608;SDS011;55581;46.718;7.690;2022-07-29T01:45:15;8.33;;;2.17;;
68608;SDS011;55581;46.718;7.690;2022-07-29T01:48:06;4.43;;;2.00;;
68608;SDS011;55581;46.718;7.690;2022-07-29T01:56:16;6.38;;;2.55;;
68608;SDS011;55581;46.718;7.690;2022-07-29T01:58:43;5.20;;;2.23;;
68608;SDS011;55581;46.718;7.690;2022-07-29T02:01:11;5.47;;;2.38;;
68608;SDS011;55581;46.718;7.690;2022-07-29T02:03:38;5.97;;;2.80;;
68608;SDS011;55581;46.718;7.690;2022-07-29T02:06:06;5.53;;;2.30;;
68608;SDS011;55581;46.718;7.690;2022-07-29T02:08:37;6.07;;;2.60;;
68608;SDS011;55581;46.718;7.690;2022-07-29T02:11:06;5.10;;;2.57;;
68608;SDS011;55581;46.718;7.690;2022-07-29T02:13:35;5.22;;;2.03;;
68608;SDS011;55581;46.718;7.690;2022-07-29T02:16:02;5.60;;;2.40;;
68608;SDS011;55581;46.718;7.690;2022-07-29T02:18:30;4.32;;;2.25;;
68608;SDS011;55581;46.718;7.690;2022-07-29T02:20:59;6.15;;;2.20;;
68608;SDS011;55581;46.718;7.690;2022-07-29T02:23:28;4.80;;;2.10;;
68608;SDS011;55581;46.718;7.690;2022-07-29T02:25:56;6.82;;;2.53;;
68608;SDS011;55581;46.718;7.690;2022-07-29T02:28:24;6.20;;;2.40;;
68608;SDS011;55581;46.718;7.690;2022-07-29T02:30:53;6.00;;;1.75;;
68608;SDS011;55581;46.718;7.690;2022-07-29T02:33:21;7.13;;;2.10;;
68608;SDS011;55581;46.718;7.690;2022-07-29T02:35:48;4.27;;;1.80;;
68608;SDS011;55581;46.718;7.690;2022-07-29T02:38:15;4.97;;;1.83;;
68608;SDS011;55581;46.718;7.690;2022-07-29T02:41:03;4.93;;;1.75;;
68608;SDS011;55581;46.718;7.690;2022-07-29T02:43:32;4.10;;;2.10;;
68608;SDS011;55581;46.718;7.690;2022-07-29T02:46:00;6.68;;;2.40;;
68608;SDS011;55581;46.718;7.690;2022-07-29T02:48:34;5.30;;;2.37;;
68608;SDS011;55581;46.718;7.690;2022-07-29T02:51:08;6.07;;;1.92;;
68608;SDS011;55581;46.718;7.690;2022-07-29T02:53:38;7.60;;;2.03;;
68608;SDS011;55581;46.718;7.690;2022-07-29T02:56:16;3.80;;;1.70;;
68608;SDS011;55581;46.718;7.690;2022-07-29T02:58:56;3.90;;;1.65;;
68608;SDS011;55581;46.718;7.690;2022-07-29T03:01:24;4.33;;;1.83;;
68608;SDS011;55581;46.718;7.690;2022-07-29T03:03:53;3.97;;;1.98;;
68608;SDS011;55581;46.718;7.690;2022-07-29T03:06:20;5.55;;;2.20;;
68608;SDS011;55581;46.718;7.690;2022-07-29T03:08:49;4.25;;;2.15;;
68608;SDS011;55581;46.718;7.690;2022-07-29T03:11:17;6.82;;;2.35;;
68608;SDS011;55581;46.718;7.690;2022-07-29T03:13:43;4.90;;;2.00;;
68608;SDS011;55581;46.718;7.690;2022-07-29T03:16:09;4.22;;;2.05;;
68608;SDS011;55581;46.718;7.690;2022-07-29T03:18:35;4.20;;;1.90;;
68608;SDS011;55581;46.718;7.690;2022-07-29T03:21:02;5.45;;;1.70;;
68608;SDS011;55581;46.718;7.690;2022-07-29T03:23:28;5.30;;;2.83;;
68608;SDS011;55581;46.718;7.690;2022-07-29T03:25:55;4.93;;;1.80;;
68608;SDS011;55581;46.718;7.690;2022-07-29T03:28:21;4.35;;;1.92;;
68608;SDS011;55581;46.718;7.690;2022-07-29T03:30:48;4.55;;;1.98;;
68608;SDS011;55581;46.718;7.690;2022-07-29T03:33:14;6.60;;;2.30;;
68608;SDS011;55581;46.718;7.690;2022-07-29T03:35:40;4.60;;;2.37;;
68608;SDS011;55581;46.718;7.690;2022-07-29T03:38:06;6.00;;;1.90;;
68608;SDS011;55581;46.718;7.690;2022-07-29T03:40:37;4.37;;;2.20;;
68608;SDS011;55581;46.718;7.690;2022-07-29T03:43:13;5.40;;;2.22;;
68608;SDS011;55581;46.718;7.690;2022-07-29T03:45:42;5.38;;;2.45;;
68608;SDS011;55581;46.718;7.690;2022-07-29T03:48:12;6.30;;;1.92;;
68608;SDS011;55581;46.718;7.690;2022-07-29T03:50:40;3.58;;;1.90;;
68608;SDS011;55581;46.718;7.690;2022-07-29T03:53:05;5.20;;;2.17;;
68608;SDS011;55581;46.718;7.690;2022-07-29T03:55:36;4.00;;;1.77;;
68608;SDS011;55581;46.718;7.690;2022-07-29T03:58:09;4.43;;;2.25;;
68608;SDS011;55581;46.718;7.690;2022-07-29T04:00:38;4.70;;;2.07;;
68608;SDS011;55581;46.718;7.690;2022-07-29T04:03:05;9.15;;;2.15;;
68608;SDS011;55581;46.718;7.690;2022-07-29T04:05:32;4.90;;;2.10;;
68608;SDS011;55581;46.718;7.690;2022-07-29T04:07:58;4.77;;;2.20;;
68608;SDS011;55581;46.718;7.690;2022-07-29T04:10:23;4.10;;;2.03;;
68608;SDS011;55581;46.718;7.690;2022-07-29T04:12:49;4.07;;;1.97;;
68608;SDS011;55581;46.718;7.690;2022-07-29T04:15:17;6.53;;;2.40;;
68608;SDS011;55581;46.718;7.690;2022-07-29T04:17:45;4.60;;;2.27;;
68608;SDS011;55581;46.718;7.690;2022-07-29T04:20:10;4.95;;;2.00;;
68608;SDS011;55581;46.718;7.690;2022-07-29T04:22:38;4.88;;;2.35;;
68608;SDS011;55581;46.718;7.690;2022-07-29T04:25:04;4.30;;;2.03;;
68608;SDS011;55581;46.718;7.690;2022-07-29T04:27:30;4.82;;;2.38;;
68608;SDS011;55581;46.718;7.690;2022-07-29T04:29:57;4.20;;;2.13;;
68608;SDS011;55581;46.718;7.690;2022-07-29T04:32:23;4.37;;;2.20;;
68608;SDS011;55581;46.718;7.690;2022-07-29T04:34:49;5.60;;;2.28;;
68608;SDS011;55581;46.718;7.690;2022-07-29T04:37:15;5.60;;;2.30;;
68608;SDS011;55581;46.718;7.690;2022-07-29T04:39:40;9.93;;;2.13;;
68608;SDS011;55581;46.718;7.690;2022-07-29T04:42:06;5.43;;;1.90;;
68608;SDS011;55581;46.718;7.690;2022-07-29T04:44:32;4.88;;;2.10;;
68608;SDS011;55581;46.718;7.690;2022-07-29T04:46:58;6.90;;;2.40;;
68608;SDS011;55581;46.718;7.690;2022-07-29T04:49:27;5.40;;;2.13;;
68608;SDS011;55581;46.718;7.690;2022-07-29T04:51:55;6.13;;;2.50;;
68608;SDS011;55581;46.718;7.690;2022-07-29T04:54:21;5.55;;;2.22;;
68608;SDS011;55581;46.718;7.690;2022-07-29T04:56:46;5.00;;;2.10;;
68608;SDS011;55581;46.718;7.690;2022-07-29T04:59:12;4.77;;;2.30;;
68608;SDS011;55581;46.718;7.690;2022-07-29T05:01:38;5.03;;;1.92;;
68608;SDS011;55581;46.718;7.690;2022-07-29T05:04:03;4.30;;;2.00;;
68608;SDS011;55581;46.718;7.690;2022-07-29T05:06:28;4.20;;;1.70;;
68608;SDS011;55581;46.718;7.690;2022-07-29T05:08:54;4.57;;;2.37;;
68608;SDS011;55581;46.718;7.690;2022-07-29T05:11:22;7.25;;;2.35;;
68608;SDS011;55581;46.718;7.690;2022-07-29T05:13:47;5.70;;;2.00;;
68608;SDS011;55581;46.718;7.690;2022-07-29T05:16:13;4.95;;;2.05;;
68608;SDS011;55581;46.718;7.690;2022-07-29T05:18:41;7.15;;;2.30;;
68608;SDS011;55581;46.718;7.690;2022-07-29T05:21:07;4.20;;;2.10;;
68608;SDS011;55581;46.718;7.690;2022-07-29T05:23:35;6.35;;;2.10;;
68608;SDS011;55581;46.718;7.690;2022-07-29T05:26:00;5.00;;;2.33;;
68608;SDS011;55581;46.718;7.690;2022-07-29T05:28:27;5.53;;;2.33;;
68608;SDS011;55581;46.718;7.690;2022-07-29T05:30:53;5.87;;;2.20;;
68608;SDS011;55581;46.718;7.690;2022-07-29T05:33:21;3.60;;;1.88;;
68608;SDS011;55581;46.718;7.690;2022-07-29T05:35:48;6.25;;;2.22;;
68608;SDS011;55581;46.718;7.690;2022-07-29T05:38:14;5.05;;;2.10;;
68608;SDS011;55581;46.718;7.690;2022-07-29T05:40:41;10.10;;;2.40;;
68608;SDS011;55581;46.718;7.690;2022-07-29T05:43:07;4.07;;;2.03;;
68608;SDS011;55581;46.718;7.690;2022-07-29T05:45:34;4.00;;;1.85;;
68608;SDS011;55581;46.718;7.690;2022-07-29T05:47:59;3.97;;;1.80;;
68608;SDS011;55581;46.718;7.690;2022-07-29T05:50:25;5.43;;;2.13;;
68608;SDS011;55581;46.718;7.690;2022-07-29T05:52:50;5.30;;;1.70;;
68608;SDS011;55581;46.718;7.690;2022-07-29T05:55:17;3.53;;;1.75;;
68608;SDS011;55581;46.718;7.690;2022-07-29T05:57:45;5.77;;;2.10;;
68608;SDS011;55581;46.718;7.690;2022-07-29T06:00:11;4.22;;;1.98;;
68608;SDS011;55581;46.718;7.690;2022-07-29T06:02:36;4.28;;;2.28;;
68608;SDS011;55581;46.718;7.690;2022-07-29T06:05:02;4.57;;;1.97;;
68608;SDS011;55581;46.718;7.690;2022-07-29T06:07:27;4.00;;;2.03;;
68608;SDS011;55581;46.718;7.690;2022-07-29T06:09:55;4.37;;;2.20;;
68608;SDS011;55581;46.718;7.690;2022-07-29T06:12:23;4.28;;;2.08;;
68608;SDS011;55581;46.718;7.690;2022-07-29T06:14:48;4.57;;;2.30;;
68608;SDS011;55581;46.718;7.690;2022-07-29T06:17:15;4.82;;;2.08;;
68608;SDS011;55581;46.718;7.690;2022-07-29T06:19:41;5.67;;;2.07;;
68608;SDS011;55581;46.718;7.690;2022-07-29T06:22:07;4.82;;;2.08;;
68608;SDS011;55581;46.718;7.690;2022-07-29T06:24:35;5.07;;;2.03;;
68608;SDS011;55581;46.718;7.690;2022-07-29T06:27:02;4.70;;;1.85;;
68608;SDS011;55581;46.718;7.690;2022-07-29T06:29:31;4.53;;;2.37;;
68608;SDS011;55581;46.718;7.690;2022-07-29T06:31:56;7.05;;;1.92;;
68608;SDS011;55581;46.718;7.690;2022-07-29T06:34:21;5.27;;;1.97;;
68608;SDS011;55581;46.718;7.690;2022-07-29T06:36:47;5.07;;;2.22;;
68608;SDS011;55581;46.718;7.690;2022-07-29T06:39:14;5.47;;;1.70;;
68608;SDS011;55581;46.718;7.690;2022-07-29T06:41:39;4.85;;;2.03;;
68608;SDS011;55581;46.718;7.690;2022-07-29T06:44:05;3.63;;;1.70;;
68608;SDS011;55581;46.718;7.690;2022-07-29T06:46:30;6.20;;;2.20;;
68608;SDS011;55581;46.718;7.690;2022-07-29T06:49:05;3.95;;;1.45;;
68608;SDS011;55581;46.718;7.690;2022-07-29T06:51:31;6.47;;;1.77;;
68608;SDS011;55581;46.718;7.690;2022-07-29T06:53:56;3.67;;;1.70;;
68608;SDS011;55581;46.718;7.690;2022-07-29T06:56:22;4.78;;;2.10;;
68608;SDS011;55581;46.718;7.690;2022-07-29T06:58:48;4.00;;;1.67;;
68608;SDS011;55581;46.718;7.690;2022-07-29T07:01:13;4.10;;;1.55;;
68608;SDS011;55581;46.718;7.690;2022-07-29T07:03:39;4.17;;;1.77;;
68608;SDS011;55581;46.718;7.690;2022-07-29T07:06:04;7.83;;;1.83;;
68608;SDS011;55581;46.718;7.690;2022-07-29T07:08:30;4.93;;;2.17;;
68608;SDS011;55581;46.718;7.690;2022-07-29T07:10:55;7.20;;;1.63;;
68608;SDS011;55581;46.718;7.690;2022-07-29T07:13:21;4.67;;;1.73;;
68608;SDS011;55581;46.718;7.690;2022-07-29T07:15:47;3.80;;;1.70;;
68608;SDS011;55581;46.718;7.690;2022-07-29T07:18:13;7.53;;;2.22;;
68608;SDS011;55581;46.718;7.690;2022-07-29T07:20:39;4.57;;;1.87;;
68608;SDS011;55581;46.718;7.690;2022-07-29T07:23:05;6.82;;;1.75;;
68608;SDS011;55581;46.718;7.690;2022-07-29T07:25:36;5.30;;;2.03;;
68608;SDS011;55581;46.718;7.690;2022-07-29T07:28:02;5.80;;;1.83;;
68608;SDS011;55581;46.718;7.690;2022-07-29T07:30:31;4.38;;;1.70;;
68608;SDS011;55581;46.718;7.690;2022-07-29T07:32:56;6.03;;;2.03;;
68608;SDS011;55581;46.718;7.690;2022-07-29T07:35:22;6.10;;;2.03;;
68608;SDS011;55581;46.718;7.690;2022-07-29T07:37:47;6.03;;;1.80;;
68608;SDS011;55581;46.718;7.690;2022-07-29T07:40:13;4.33;;;2.10;;
68608;SDS011;55581;46.718;7.690;2022-07-29T07:42:39;3.80;;;1.67;;
68608;SDS011;55581;46.718;7.690;2022-07-29T07:45:05;4.43;;;1.90;;
68608;SDS011;55581;46.718;7.690;2022-07-29T07:47:34;3.40;;;1.50;;
68608;SDS011;55581;46.718;7.690;2022-07-29T07:49:59;4.50;;;2.07;;
68608;SDS011;55581;46.718;7.690;2022-07-29T07:52:26;5.05;;;2.00;;
68608;SDS011;55581;46.718;7.690;2022-07-29T07:54:52;5.13;;;2.00;;
68608;SDS011;55581;46.718;7.690;2022-07-29T07:57:17;4.00;;;2.00;;
68608;SDS011;55581;46.718;7.690;2022-07-29T07:59:43;3.80;;;1.80;;
68608;SDS011;55581;46.718;7.690;2022-07-29T08:02:09;4.15;;;2.08;;
68608;SDS011;55581;46.718;7.690;2022-07-29T08:04:34;3.10;;;1.53;;
68608;SDS011;55581;46.718;7.690;2022-07-29T08:07:00;4.88;;;2.50;;
68608;SDS011;55581;46.718;7.690;2022-07-29T08:09:26;4.00;;;2.30;;
68608;SDS011;55581;46.718;7.690;2022-07-29T08:11:52;5.33;;;1.90;;
68608;SDS011;55581;46.718;7.690;2022-07-29T08:14:18;5.35;;;2.15;;
68608;SDS011;55581;46.718;7.690;2022-07-29T08:16:46;3.78;;;2.22;;
68608;SDS011;55581;46.718;7.690;2022-07-29T08:19:11;6.03;;;2.07;;
68608;SDS011;55581;46.718;7.690;2022-07-29T08:21:40;5.00;;;2.40;;
68608;SDS011;55581;46.718;7.690;2022-07-29T08:24:06;4.23;;;2.20;;
68608;SDS011;55581;46.718;7.690;2022-07-29T08:26:50;4.07;;;1.95;;
68608;SDS011;55581;46.718;7.690;2022-07-29T08:29:17;5.05;;;2.00;;
68608;SDS011;55581;46.718;7.690;2022-07-29T08:31:45;5.25;;;1.98;;
68608;SDS011;55581;46.718;7.690;2022-07-29T08:34:13;5.55;;;2.00;;
68608;SDS011;55581;46.718;7.690;2022-07-29T08:36:39;5.93;;;2.07;;
68608;SDS011;55581;46.718;7.690;2022-07-29T08:39:05;4.18;;;2.00;;
68608;SDS011;55581;46.718;7.690;2022-07-29T08:41:30;5.43;;;2.10;;
68608;SDS011;55581;46.718;7.690;2022-07-29T08:43:56;4.70;;;2.50;;
68608;SDS011;55581;46.718;7.690;2022-07-29T08:46:22;4.53;;;2.00;;
68608;SDS011;55581;46.718;7.690;2022-07-29T08:48:48;4.70;;;2.00;;
68608;SDS011;55581;46.718;7.690;2022-07-29T08:51:15;5.28;;;2.47;;
68608;SDS011;55581;46.718;7.690;2022-07-29T08:53:43;6.35;;;2.33;;
68608;SDS011;55581;46.718;7.690;2022-07-29T08:56:13;4.82;;;2.25;;
68608;SDS011;55581;46.718;7.690;2022-07-29T08:58:40;6.40;;;2.17;;
68608;SDS011;55581;46.718;7.690;2022-07-29T09:01:08;4.20;;;2.10;;
68608;SDS011;55581;46.718;7.690;2022-07-29T09:03:35;6.50;;;2.35;;
68608;SDS011;55581;46.718;7.690;2022-07-29T09:06:02;6.32;;;2.47;;
68608;SDS011;55581;46.718;7.690;2022-07-29T09:08:31;4.57;;;2.03;;
68608;SDS011;55581;46.718;7.690;2022-07-29T09:10:57;3.50;;;1.93;;
68608;SDS011;55581;46.718;7.690;2022-07-29T09:13:25;6.18;;;2.13;;
68608;SDS011;55581;46.718;7.690;2022-07-29T09:15:50;5.18;;;2.10;;
68608;SDS011;55581;46.718;7.690;2022-07-29T09:21:05;5.35;;;3.00;;
68608;SDS011;55581;46.718;7.690;2022-07-29T09:26:36;8.97;;;2.93;;
68608;SDS011;55581;46.718;7.690;2022-07-29T09:29:23;6.32;;;3.17;;
68608;SDS011;55581;46.718;7.690;2022-07-29T09:31:50;6.60;;;2.67;;
68608;SDS011;55581;46.718;7.690;2022-07-29T09:34:20;5.15;;;2.80;;
68608;SDS011;55581;46.718;7.690;2022-07-29T09:36:50;7.15;;;3.15;;
68608;SDS011;55581;46.718;7.690;2022-07-29T09:39:27;6.67;;;3.47;;
68608;SDS011;55581;46.718;7.690;2022-07-29T09:41:58;5.63;;;2.92;;
68608;SDS011;55581;46.718;7.690;2022-07-29T09:44:26;5.97;;;3.58;;
68608;SDS011;55581;46.718;7.690;2022-07-29T09:47:07;6.28;;;3.25;;
68608;SDS011;55581;46.718;7.690;2022-07-29T09:49:52;5.80;;;2.92;;
68608;SDS011;55581;46.718;7.690;2022-07-29T09:52:23;6.97;;;3.03;;
68608;SDS011;55581;46.718;7.690;2022-07-29T09:54:49;4.97;;;3.20;;
68608;SDS011;55581;46.718;7.690;2022-07-29T09:57:25;6.90;;;3.33;;
68608;SDS011;55581;46.718;7.690;2022-07-29T09:59:58;8.13;;;3.55;;
68608;SDS011;55581;46.718;7.690;2022-07-29T10:02:32;8.17;;;3.43;;
68608;SDS011;55581;46.718;7.690;2022-07-29T10:04:59;4.50;;;2.80;;
68608;SDS011;55581;46.718;7.690;2022-07-29T10:07:50;7.03;;;3.00;;
68608;SDS011;55581;46.718;7.690;2022-07-29T10:10:18;6.47;;;2.88;;
68608;SDS011;55581;46.718;7.690;2022-07-29T10:12:48;4.55;;;2.33;;
68608;SDS011;55581;46.718;7.690;2022-07-29T10:15:21;6.27;;;2.67;;
68608;SDS011;55581;46.718;7.690;2022-07-29T10:17:49;4.47;;;2.65;;
68608;SDS011;55581;46.718;7.690;2022-07-29T10:20:15;4.43;;;2.78;;
68608;SDS011;55581;46.718;7.690;2022-07-29T10:22:41;7.18;;;3.08;;
68608;SDS011;55581;46.718;7.690;2022-07-29T10:25:09;5.22;;;2.75;;
68608;SDS011;55581;46.718;7.690;2022-07-29T10:27:38;4.97;;;2.77;;
68608;SDS011;55581;46.718;7.690;2022-07-29T10:30:04;4.75;;;2.70;;
68608;SDS011;55581;46.718;7.690;2022-07-29T10:32:39;6.35;;;3.08;;
68608;SDS011;55581;46.718;7.690;2022-07-29T10:35:54;5.57;;;3.40;;
68608;SDS011;55581;46.718;7.690;2022-07-29T10:44:12;5.28;;;3.05;;
68608;SDS011;55581;46.718;7.690;2022-07-29T10:46:39;12.90;;;3.05;;
68608;SDS011;55581;46.718;7.690;2022-07-29T10:49:25;5.57;;;3.38;;
68608;SDS011;55581;46.718;7.690;2022-07-29T10:54:39;6.93;;;3.47;;
68608;SDS011;55581;46.718;7.690;2022-07-29T10:59:45;7.15;;;3.72;;
68608;SDS011;55581;46.718;7.690;2022-07-29T11:05:05;6.40;;;3.50;;
68608;SDS011;55581;46.718;7.690;2022-07-29T11:07:33;7.10;;;3.33;;
68608;SDS011;55581;46.718;7.690;2022-07-29T11:15:09;5.17;;;3.43;;
68608;SDS011;55581;46.718;7.690;2022-07-29T11:31:44;8.13;;;4.05;;
68608;SDS011;55581;46.718;7.690;2022-07-29T11:39:40;9.67;;;3.83;;
68608;SDS011;55581;46.718;7.690;2022-07-29T11:47:59;6.78;;;4.25;;
68608;SDS011;55581;46.718;7.690;2022-07-29T11:52:52;5.83;;;3.27;;
68608;SDS011;55581;46.718;7.690;2022-07-29T11:55:19;6.57;;;3.13;;
68608;SDS011;55581;46.718;7.690;2022-07-29T12:02:53;5.87;;;2.07;;
68608;SDS011;55581;46.718;7.690;2022-07-29T12:05:20;6.15;;;2.95;;
68608;SDS011;55581;46.718;7.690;2022-07-29T12:07:46;5.50;;;2.78;;
68608;SDS011;55581;46.718;7.690;2022-07-29T12:10:13;7.05;;;3.33;;
68608;SDS011;55581;46.718;7.690;2022-07-29T12:12:39;7.45;;;3.15;;
68608;SDS011;55581;46.718;7.690;2022-07-29T12:15:17;5.63;;;3.67;;
68608;SDS011;55581;46.718;7.690;2022-07-29T12:17:45;5.50;;;3.75;;
68608;SDS011;55581;46.718;7.690;2022-07-29T12:20:12;7.25;;;4.03;;
68608;SDS011;55581;46.718;7.690;2022-07-29T12:22:41;6.13;;;4.17;;
68608;SDS011;55581;46.718;7.690;2022-07-29T12:25:13;5.72;;;3.45;;
68608;SDS011;55581;46.718;7.690;2022-07-29T12:27:43;6.10;;;3.08;;
68608;SDS011;55581;46.718;7.690;2022-07-29T12:30:10;6.70;;;3.50;;
68608;SDS011;55581;46.718;7.690;2022-07-29T12:32:45;6.27;;;3.80;;
68608;SDS011;55581;46.718;7.690;2022-07-29T12:35:16;7.10;;;4.65;;
68608;SDS011;55581;46.718;7.690;2022-07-29T12:37:46;6.07;;;4.00;;
68608;SDS011;55581;46.718;7.690;2022-07-29T12:40:17;5.90;;;3.65;;
68608;SDS011;55581;46.718;7.690;2022-07-29T12:45:39;7.33;;;3.70;;
68608;SDS011;55581;46.718;7.690;2022-07-29T12:48:09;7.78;;;4.38;;
68608;SDS011;55581;46.718;7.690;2022-07-29T12:50:57;6.97;;;4.40;;
68608;SDS011;55581;46.718;7.690;2022-07-29T12:53:22;7.68;;;4.10;;
68608;SDS011;55581;46.718;7.690;2022-07-29T12:55:49;7.40;;;4.73;;
68608;SDS011;55581;46.718;7.690;2022-07-29T12:58:31;7.60;;;4.10;;
68608;SDS011;55581;46.718;7.690;2022-07-29T13:01:05;9.07;;;4.55;;
68608;SDS011;55581;46.718;7.690;2022-07-29T13:09:06;12.50;;;4.80;;
68608;SDS011;55581;46.718;7.690;2022-07-29T13:11:51;5.77;;;3.90;;
68608;SDS011;55581;46.718;7.690;2022-07-29T13:19:40;10.77;;;4.40;;
68608;SDS011;55581;46.718;7.690;2022-07-29T13:22:12;7.35;;;4.45;;
68608;SDS011;55581;46.718;7.690;2022-07-29T13:27:18;4.68;;;2.00;;
68608;SDS011;55581;46.718;7.690;2022-07-29T13:29:45;4.07;;;1.40;;
68608;SDS011;55581;46.718;7.690;2022-07-29T13:32:12;3.75;;;1.10;;
68608;SDS011;55581;46.718;7.690;2022-07-29T13:34:38;4.30;;;1.40;;
68608;SDS011;55581;46.718;7.690;2022-07-29T13:37:05;5.03;;;1.50;;
68608;SDS011;55581;46.718;7.690;2022-07-29T13:39:30;2.95;;;1.10;;
68608;SDS011;55581;46.718;7.690;2022-07-29T13:41:58;7.33;;;1.63;;
68608;SDS011;55581;46.718;7.690;2022-07-29T13:44:23;5.68;;;1.60;;
68608;SDS011;55581;46.718;7.690;2022-07-29T13:46:50;4.95;;;1.70;;
68608;SDS011;55581;46.718;7.690;2022-07-29T13:49:16;4.40;;;1.60;;
68608;SDS011;55581;46.718;7.690;2022-07-29T13:51:41;3.85;;;1.42;;
68608;SDS011;55581;46.718;7.690;2022-07-29T13:54:06;5.40;;;1.60;;
68608;SDS011;55581;46.718;7.690;2022-07-29T13:56:32;6.37;;;1.80;;
68608;SDS011;55581;46.718;7.690;2022-07-29T13:58:58;4.70;;;2.08;;
68608;SDS011;55581;46.718;7.690;2022-07-29T14:01:29;3.90;;;2.00;;
68608;SDS011;55581;46.718;7.690;2022-07-29T14:03:55;6.93;;;1.77;;
68608;SDS011;55581;46.718;7.690;2022-07-29T14:06:21;6.50;;;2.10;;
68608;SDS011;55581;46.718;7.690;2022-07-29T14:08:47;5.23;;;2.10;;
68608;SDS011;55581;46.718;7.690;2022-07-29T14:11:13;5.25;;;2.00;;
68608;SDS011;55581;46.718;7.690;2022-07-29T14:13:38;5.60;;;1.80;;
68608;SDS011;55581;46.718;7.690;2022-07-29T14:16:07;4.72;;;1.38;;
68608;SDS011;55581;46.718;7.690;2022-07-29T14:18:33;4.97;;;1.53;;
68608;SDS011;55581;46.718;7.690;2022-07-29T14:20:58;3.67;;;1.00;;
68608;SDS011;55581;46.718;7.690;2022-07-29T14:23:25;3.70;;;1.05;;
68608;SDS011;55581;46.718;7.690;2022-07-29T14:25:51;2.87;;;1.10;;
68608;SDS011;55581;46.718;7.690;2022-07-29T14:28:16;4.45;;;1.17;;
68608;SDS011;55581;46.718;7.690;2022-07-29T14:30:42;4.00;;;1.23;;
68608;SDS011;55581;46.718;7.690;2022-07-29T14:33:10;3.33;;;0.73;;
68608;SDS011;55581;46.718;7.690;2022-07-29T14:35:35;2.73;;;0.80;;
68608;SDS011;55581;46.718;7.690;2022-07-29T14:38:01;2.93;;;1.00;;
68608;SDS011;55581;46.718;7.690;2022-07-29T14:40:26;3.30;;;1.17;;
68608;SDS011;55581;46.718;7.690;2022-07-29T14:42:51;3.70;;;1.40;;
68608;SDS011;55581;46.718;7.690;2022-07-29T14:45:17;4.93;;;1.10;;
68608;SDS011;55581;46.718;7.690;2022-07-29T14:47:42;3.60;;;1.00;;
68608;SDS011;55581;46.718;7.690;2022-07-29T14:50:09;3.73;;;1.53;;
68608;SDS011;55581;46.718;7.690;2022-07-29T14:52:36;4.35;;;1.25;;
68608;SDS011;55581;46.718;7.690;2022-07-29T14:55:04;4.47;;;1.05;;
68608;SDS011;55581;46.718;7.690;2022-07-29T14:57:30;2.78;;;1.13;;
68608;SDS011;55581;46.718;7.690;2022-07-29T14:59:55;2.43;;;1.00;;
68608;SDS011;55581;46.718;7.690;2022-07-29T15:02:21;6.33;;;1.00;;
68608;SDS011;55581;46.718;7.690;2022-07-29T15:04:46;3.13;;;1.00;;
68608;SDS011;55581;46.718;7.690;2022-07-29T15:07:13;2.50;;;0.77;;
68608;SDS011;55581;46.718;7.690;2022-07-29T15:09:39;4.35;;;1.10;;
68608;SDS011;55581;46.718;7.690;2022-07-29T15:12:04;2.78;;;1.10;;
68608;SDS011;55581;46.718;7.690;2022-07-29T15:14:31;2.37;;;0.80;;
68608;SDS011;55581;46.718;7.690;2022-07-29T15:16:57;2.75;;;0.85;;
68608;SDS011;55581;46.718;7.690;2022-07-29T15:19:23;3.10;;;1.10;;
68608;SDS011;55581;46.718;7.690;2022-07-29T15:21:49;2.00;;;0.65;;
68608;SDS011;55581;46.718;7.690;2022-07-29T15:24:16;2.42;;;0.77;;
68608;SDS011;55581;46.718;7.690;2022-07-29T15:26:42;3.00;;;0.90;;
68608;SDS011;55581;46.718;7.690;2022-07-29T15:29:08;3.28;;;0.95;;
68608;SDS011;55581;46.718;7.690;2022-07-29T15:31:34;1.90;;;0.70;;
68608;SDS011;55581;46.718;7.690;2022-07-29T15:34:01;2.10;;;0.80;;
68608;SDS011;55581;46.718;7.690;2022-07-29T15:36:30;5.93;;;1.70;;
68608;SDS011;55581;46.718;7.690;2022-07-29T15:38:56;3.38;;;1.17;;
68608;SDS011;55581;46.718;7.690;2022-07-29T15:41:21;2.80;;;1.20;;
68608;SDS011;55581;46.718;7.690;2022-07-29T15:43:49;2.50;;;0.93;;
68608;SDS011;55581;46.718;7.690;2022-07-29T15:46:16;2.60;;;1.00;;
68608;SDS011;55581;46.718;7.690;2022-07-29T15:49:02;2.20;;;0.82;;
68608;SDS011;55581;46.718;7.690;2022-07-29T15:51:30;2.00;;;0.57;;
68608;SDS011;55581;46.718;7.690;2022-07-29T15:53:56;4.25;;;0.85;;
68608;SDS011;55581;46.718;7.690;2022-07-29T15:56:22;2.80;;;1.00;;
68608;SDS011;55581;46.718;7.690;2022-07-29T15:58:50;3.22;;;0.80;;
68608;SDS011;55581;46.718;7.690;2022-07-29T16:01:18;2.50;;;0.93;;
68608;SDS011;55581;46.718;7.690;2022-07-29T16:03:43;3.63;;;1.10;;
68608;SDS011;55581;46.718;7.690;2022-07-29T16:06:08;4.20;;;1.00;;
68608;SDS011;55581;46.718;7.690;2022-07-29T16:08:34;2.83;;;0.88;;
68608;SDS011;55581;46.718;7.690;2022-07-29T16:11:00;2.20;;;0.80;;
68608;SDS011;55581;46.718;7.690;2022-07-29T16:13:26;5.13;;;1.67;;
68608;SDS011;55581;46.718;7.690;2022-07-29T16:15:52;6.40;;;3.30;;
68608;SDS011;55581;46.718;7.690;2022-07-29T16:18:17;4.73;;;2.27;;
68608;SDS011;55581;46.718;7.690;2022-07-29T16:20:43;2.85;;;1.20;;
68608;SDS011;55581;46.718;7.690;2022-07-29T16:23:08;2.90;;;1.00;;
68608;SDS011;55581;46.718;7.690;2022-07-29T16:25:37;2.60;;;1.20;;
68608;SDS011;55581;46.718;7.690;2022-07-29T16:28:03;4.18;;;1.10;;